Time;durP1;ratioP1;P1;durP2;ratioP2;P2;SDS_P1;SDS_P2;PMS_P1;PMS_P2;Temp;Humidity;BMP_temperature;BMP_pressure;BME280_temperature;BME280_humidity;BME280_pressure;Samples;Min_cycle;Max_cycle;Signal;HPM_P1;HPM_P2
2023/08/23 00:01:05;;;;;;;13.68;12.25;;;27.30;56.80;;;;;;5026621;28;114667;-79
2023/08/23 00:03:51;;;;;;;10.95;9.85;;;27.30;56.90;;;;;;5026409;27;114589;-78
2023/08/23 00:06:18;;;;;;;10.40;9.38;;;27.30;56.70;;;;;;5027655;27;114459;-78
2023/08/23 00:08:45;;;;;;;11.35;10.18;;;27.30;56.70;;;;;;5027954;27;114239;-78
2023/08/23 00:11:12;;;;;;;11.27;10.25;;;27.30;56.50;;;;;;5026441;28;114866;-79
2023/08/23 00:13:39;;;;;;;13.80;12.40;;;27.30;56.70;;;;;;5024964;28;116762;-78
2023/08/23 00:16:06;;;;;;;15.60;14.02;;;27.30;57.30;;;;;;5027312;28;114069;-79
2023/08/23 00:18:33;;;;;;;16.80;14.88;;;27.20;57.60;;;;;;5027607;28;114091;-77
2023/08/23 00:21:00;;;;;;;16.52;14.73;;;27.10;58.10;;;;;;5024877;28;115182;-78
2023/08/23 00:23:27;;;;;;;13.63;11.98;;;27.00;58.20;;;;;;5025237;28;114763;-78
2023/08/23 00:25:54;;;;;;;10.93;9.82;;;27.00;57.90;;;;;;5025945;28;114580;-78
2023/08/23 00:28:21;;;;;;;11.35;10.25;;;27.00;57.40;;;;;;5027684;28;114306;-78
2023/08/23 00:30:52;;;;;;;12.70;10.82;;;27.10;57.30;;;;;;5025171;28;114906;-78
2023/08/23 00:33:19;;;;;;;11.50;10.32;;;27.10;57.80;;;;;;5008057;28;114666;-78
2023/08/23 00:35:47;;;;;;;12.70;11.40;;;27.10;57.20;;;;;;5025592;27;114451;-78
2023/08/23 00:38:15;;;;;;;11.82;10.63;;;27.10;57.60;;;;;;5029099;28;114815;-79
2023/08/23 00:40:42;;;;;;;12.63;11.43;;;27.10;57.30;;;;;;5011653;28;114927;-79
2023/08/23 00:43:09;;;;;;;11.57;10.43;;;27.10;57.60;;;;;;5029525;28;115089;-79
2023/08/23 00:45:37;;;;;;;14.98;13.43;;;27.10;57.30;;;;;;5029161;28;114319;-79
2023/08/23 00:48:04;;;;;;;12.40;10.98;;;27.20;58.00;;;;;;5030815;28;114456;-79
2023/08/23 00:50:31;;;;;;;11.55;10.30;;;27.10;57.60;;;;;;5029273;28;114919;-78
2023/08/23 00:52:59;;;;;;;11.90;10.77;;;27.10;57.40;;;;;;5027318;28;115754;-79
2023/08/23 00:55:27;;;;;;;16.35;14.15;;;27.10;57.50;;;;;;5012279;28;114308;-79
2023/08/23 00:57:55;;;;;;;12.30;11.00;;;27.00;58.00;;;;;;5011860;28;114229;-79
2023/08/23 01:00:22;;;;;;;15.88;12.70;;;27.00;57.50;;;;;;5029149;28;114926;-78
2023/08/23 01:02:49;;;;;;;14.73;13.20;;;27.00;57.90;;;;;;5028058;28;114569;-79
2023/08/23 01:05:16;;;;;;;14.93;12.02;;;27.00;57.90;;;;;;5029167;28;114161;-78
2023/08/23 01:07:50;;;;;;;14.70;13.15;;;27.00;57.70;;;;;;5028193;28;114652;-78
2023/08/23 01:10:24;;;;;;;14.50;13.02;;;27.00;58.00;;;;;;5027855;28;114825;-79
2023/08/23 01:13:08;;;;;;;11.55;10.45;;;27.00;57.80;;;;;;5028098;28;114630;-79
2023/08/23 01:15:35;;;;;;;12.95;11.75;;;27.00;57.60;;;;;;5028984;28;114246;-78
2023/08/23 01:18:02;;;;;;;14.00;12.57;;;27.00;57.70;;;;;;5028941;28;114152;-78
2023/08/23 01:20:30;;;;;;;12.38;11.13;;;26.90;57.80;;;;;;5027591;28;114964;-78
2023/08/23 01:23:12;;;;;;;12.43;11.23;;;27.00;57.70;;;;;;5027791;28;115612;-78
2023/08/23 01:25:50;;;;;;;13.25;11.90;;;27.00;57.50;;;;;;5029868;28;114042;-78
2023/08/23 01:28:18;;;;;;;12.05;10.85;;;27.10;57.40;;;;;;4995247;28;114631;-80
2023/08/23 01:30:46;;;;;;;12.02;10.70;;;27.00;57.60;;;;;;5027468;28;114356;-79
2023/08/23 01:33:20;;;;;;;11.82;10.80;;;27.10;57.40;;;;;;5027529;28;114608;-78
2023/08/23 01:36:08;;;;;;;13.13;11.38;;;27.10;57.50;;;;;;5027429;28;114267;-78
2023/08/23 01:38:38;;;;;;;11.63;10.43;;;27.20;57.50;;;;;;5027941;28;114343;-78
2023/08/23 01:41:05;;;;;;;11.68;10.48;;;27.10;57.40;;;;;;5027443;28;114876;-79
2023/08/23 01:43:32;;;;;;;12.05;10.95;;;27.10;57.20;;;;;;5027191;28;114644;-79
2023/08/23 01:45:59;;;;;;;12.43;11.18;;;27.20;57.20;;;;;;5028408;28;114314;-79
2023/08/23 01:48:28;;;;;;;12.43;10.68;;;27.20;57.20;;;;;;5028993;27;114317;-80
2023/08/23 01:50:55;;;;;;;11.20;10.10;;;27.10;57.10;;;;;;5028401;28;115101;-79
2023/08/23 01:53:22;;;;;;;15.05;13.23;;;27.20;57.10;;;;;;5027230;28;114714;-79
2023/08/23 01:55:49;;;;;;;14.32;12.80;;;27.20;57.40;;;;;;5029442;28;114071;-79
2023/08/23 01:58:16;;;;;;;11.20;10.10;;;27.10;57.20;;;;;;5011584;28;114289;-79
2023/08/23 02:00:47;;;;;;;11.73;10.60;;;27.10;57.10;;;;;;5026541;28;115004;-79
2023/08/23 02:03:14;;;;;;;14.77;13.10;;;27.10;57.20;;;;;;5028153;28;114690;-78
2023/08/23 02:05:41;;;;;;;16.63;14.95;;;27.00;57.50;;;;;;5028103;28;114066;-78
2023/08/23 02:08:08;;;;;;;17.33;15.43;;;26.90;57.70;;;;;;5029304;28;114382;-78
2023/08/23 02:10:36;;;;;;;13.05;11.73;;;26.90;58.00;;;;;;5028028;28;115357;-78
2023/08/23 02:13:05;;;;;;;16.15;14.52;;;26.80;57.90;;;;;;5010061;28;117453;-78
2023/08/23 02:15:32;;;;;;;14.38;12.95;;;26.80;58.10;;;;;;5010984;28;114210;-78
2023/08/23 02:17:59;;;;;;;17.83;15.18;;;26.70;58.20;;;;;;5029196;28;114290;-78
2023/08/23 02:20:26;;;;;;;14.18;12.75;;;26.50;58.60;;;;;;5009750;28;117227;-79
2023/08/23 02:22:53;;;;;;;14.88;12.05;;;26.30;58.70;;;;;;5026628;28;114482;-78
2023/08/23 02:25:20;;;;;;;15.48;13.80;;;26.30;59.10;;;;;;5027822;28;114271;-79
2023/08/23 02:27:47;;;;;;;16.70;13.77;;;26.20;59.40;;;;;;5027339;28;114413;-78
2023/08/23 02:30:15;;;;;;;15.20;11.55;;;26.30;59.30;;;;;;5026568;28;114910;-79
2023/08/23 02:32:42;;;;;;;12.65;11.35;;;26.30;59.20;;;;;;5027586;28;114687;-78
2023/08/23 02:35:09;;;;;;;13.57;11.68;;;26.40;59.00;;;;;;5027654;28;114449;-78
2023/08/23 02:37:36;;;;;;;14.65;12.73;;;26.50;58.90;;;;;;5026941;28;114650;-78
2023/08/23 02:40:04;;;;;;;15.27;11.95;;;26.50;58.90;;;;;;5026442;28;114956;-78
2023/08/23 02:42:31;;;;;;;12.73;11.43;;;26.50;58.70;;;;;;5027037;28;115829;-78
2023/08/23 02:44:58;;;;;;;12.05;10.40;;;26.40;58.70;;;;;;5027191;28;114198;-78
2023/08/23 02:47:25;;;;;;;12.73;11.00;;;26.50;58.70;;;;;;5010598;28;114324;-79
2023/08/23 02:49:53;;;;;;;10.75;9.65;;;26.50;58.70;;;;;;5027393;28;114829;-78
2023/08/23 02:52:20;;;;;;;12.18;10.60;;;26.50;58.60;;;;;;5027983;28;114924;-78
2023/08/23 02:54:47;;;;;;;12.95;9.98;;;26.50;58.40;;;;;;5010736;28;114409;-78
2023/08/23 02:57:15;;;;;;;10.80;9.63;;;26.60;58.40;;;;;;5027166;28;114812;-78
2023/08/23 02:59:43;;;;;;;11.60;10.43;;;26.60;58.20;;;;;;5026098;28;116575;-79
2023/08/23 03:02:10;;;;;;;11.20;9.88;;;26.60;58.10;;;;;;5026008;28;115118;-79
2023/08/23 03:04:37;;;;;;;11.00;9.70;;;26.50;58.00;;;;;;5028581;28;114082;-79
2023/08/23 03:07:04;;;;;;;10.52;9.52;;;26.50;58.20;;;;;;5010519;28;114419;-79
2023/08/23 03:09:31;;;;;;;10.82;9.63;;;26.60;58.00;;;;;;5027284;28;114970;-79
2023/08/23 03:11:58;;;;;;;9.73;8.73;;;26.60;58.00;;;;;;5009260;28;115801;-79
2023/08/23 03:14:25;;;;;;;11.07;9.05;;;26.60;58.00;;;;;;5028237;28;114361;-79
2023/08/23 03:16:52;;;;;;;11.50;10.07;;;26.60;57.70;;;;;;5010935;28;114521;-78
2023/08/23 03:19:23;;;;;;;12.15;9.98;;;26.60;57.70;;;;;;5025947;28;114851;-78
2023/08/23 03:21:50;;;;;;;14.15;10.88;;;26.40;58.20;;;;;;5025829;28;114724;-78
2023/08/23 03:24:20;;;;;;;11.75;10.55;;;26.30;58.20;;;;;;5026497;28;114642;-78
2023/08/23 03:26:47;;;;;;;11.43;10.18;;;26.30;58.40;;;;;;5026904;28;114139;-78
2023/08/23 03:29:16;;;;;;;10.20;8.57;;;26.20;58.70;;;;;;5009377;28;115300;-79
2023/08/23 03:31:43;;;;;;;10.90;9.43;;;26.30;58.70;;;;;;5009271;28;114962;-78
2023/08/23 03:34:12;;;;;;;12.27;9.07;;;26.30;58.60;;;;;;4994057;28;114518;-79
2023/08/23 03:36:39;;;;;;;9.80;8.38;;;26.40;58.40;;;;;;5026689;28;114307;-79
2023/08/23 03:39:06;;;;;;;8.82;7.68;;;26.30;58.30;;;;;;5026893;28;114911;-79
2023/08/23 03:41:33;;;;;;;8.98;8.00;;;26.40;58.30;;;;;;5025813;28;114688;-78
2023/08/23 03:44:00;;;;;;;11.30;8.98;;;26.40;58.20;;;;;;5010106;28;114204;-79
2023/08/23 03:46:27;;;;;;;10.27;9.23;;;26.50;58.10;;;;;;5010567;28;114135;-79
2023/08/23 03:48:54;;;;;;;10.35;9.20;;;26.60;58.00;;;;;;5026770;28;114904;-77
2023/08/23 03:51:21;;;;;;;10.20;8.85;;;26.60;58.00;;;;;;5026799;28;114636;-78
2023/08/23 03:53:51;;;;;;;11.20;9.38;;;26.60;57.80;;;;;;5026350;28;114267;-79
2023/08/23 03:56:20;;;;;;;9.88;8.98;;;26.60;57.80;;;;;;5010608;28;114517;-78
2023/08/23 03:58:49;;;;;;;12.35;11.15;;;26.60;57.80;;;;;;5008270;28;114961;-79
2023/08/23 04:01:18;;;;;;;11.52;10.07;;;26.60;57.50;;;;;;5009097;28;114584;-79
2023/08/23 04:03:47;;;;;;;9.52;8.52;;;26.60;57.60;;;;;;5027261;28;114826;-79
2023/08/23 04:06:19;;;;;;;10.00;8.38;;;26.60;57.70;;;;;;5026627;28;114292;-80
2023/08/23 04:08:48;;;;;;;10.30;8.77;;;26.60;57.70;;;;;;5009376;28;114930;-79
2023/08/23 04:11:18;;;;;;;10.80;9.25;;;26.60;57.60;;;;;;5027969;27;114627;-79
2023/08/23 04:13:45;;;;;;;9.77;8.43;;;26.70;57.60;;;;;;5029574;28;114294;-79
2023/08/23 04:16:12;;;;;;;12.43;11.07;;;26.60;57.60;;;;;;5013469;28;114372;-79
2023/08/23 04:18:39;;;;;;;11.40;9.13;;;26.60;57.40;;;;;;5028498;28;117235;-78
2023/08/23 04:21:06;;;;;;;14.52;12.93;;;26.60;57.60;;;;;;5030265;28;115098;-79
2023/08/23 04:23:36;;;;;;;13.10;11.88;;;26.50;57.70;;;;;;5029756;28;114375;-79
2023/08/23 04:26:03;;;;;;;11.95;10.73;;;26.40;57.80;;;;;;5029728;28;114454;-79
2023/08/23 04:28:30;;;;;;;14.18;12.70;;;26.40;58.00;;;;;;5028588;28;114960;-80
2023/08/23 04:31:01;;;;;;;10.02;8.77;;;26.30;58.00;;;;;;4995001;28;117983;-80
2023/08/23 04:33:35;;;;;;;11.43;9.50;;;26.30;58.30;;;;;;5029795;28;114482;-79
2023/08/23 04:36:03;;;;;;;10.68;9.15;;;26.20;58.50;;;;;;5029459;28;114325;-80
2023/08/23 04:38:30;;;;;;;10.57;9.23;;;26.30;58.50;;;;;;5011550;28;115503;-79
2023/08/23 04:41:01;;;;;;;12.18;10.98;;;26.20;58.50;;;;;;5028703;28;114804;-79
2023/08/23 04:43:31;;;;;;;23.67;21.30;;;26.20;58.60;;;;;;5029466;28;114301;-79
2023/08/23 04:46:00;;;;;;;12.77;11.55;;;26.20;58.70;;;;;;5029108;28;114346;-80
2023/08/23 04:48:27;;;;;;;12.93;11.10;;;26.00;58.80;;;;;;5029588;28;114934;-80
2023/08/23 04:50:55;;;;;;;18.45;16.67;;;26.10;58.90;;;;;;5029476;28;114617;-79
2023/08/23 04:53:23;;;;;;;13.02;11.73;;;26.10;58.90;;;;;;5027464;28;114266;-79
2023/08/23 04:55:50;;;;;;;12.75;11.48;;;26.20;58.80;;;;;;5011563;28;114031;-80
2023/08/23 04:58:17;;;;;;;19.55;17.20;;;26.30;58.60;;;;;;5027491;28;116356;-79
2023/08/23 05:00:44;;;;;;;23.05;20.70;;;26.30;58.50;;;;;;5027849;28;114597;-79
2023/08/23 05:03:13;;;;;;;14.10;12.75;;;26.30;58.50;;;;;;5026543;28;114370;-80
2023/08/23 05:05:40;;;;;;;15.48;13.98;;;26.30;58.50;;;;;;5027369;28;114757;-80
2023/08/23 05:08:08;;;;;;;25.10;21.98;;;26.20;58.50;;;;;;5026612;28;115176;-78
2023/08/23 05:10:35;;;;;;;23.58;21.00;;;26.20;58.60;;;;;;4992575;28;116605;-78
2023/08/23 05:13:04;;;;;;;23.35;20.50;;;26.10;58.60;;;;;;5028743;28;114185;-78
2023/08/23 05:15:31;;;;;;;16.65;14.70;;;26.00;58.80;;;;;;5027243;28;114370;-79
2023/08/23 05:17:58;;;;;;;13.70;11.63;;;26.00;58.90;;;;;;5026309;28;114893;-80
2023/08/23 05:20:25;;;;;;;15.02;13.55;;;25.90;59.00;;;;;;5026841;28;114667;-79
2023/08/23 05:22:52;;;;;;;13.30;11.73;;;25.90;59.10;;;;;;5027805;27;114427;-80
2023/08/23 05:25:19;;;;;;;19.02;16.90;;;25.90;59.20;;;;;;5027310;28;114472;-79
2023/08/23 05:27:46;;;;;;;22.15;19.83;;;25.90;58.80;;;;;;5025758;28;114707;-78
2023/08/23 05:30:14;;;;;;;32.67;29.30;;;25.90;58.30;;;;;;5025901;28;114657;-79
2023/08/23 05:32:41;;;;;;;18.65;16.80;;;25.80;58.20;;;;;;5027198;28;114199;-79
2023/08/23 05:35:08;;;;;;;14.27;12.77;;;25.60;59.20;;;;;;5027188;28;114116;-78
2023/08/23 05:37:36;;;;;;;18.77;16.98;;;25.60;59.60;;;;;;5008770;28;114841;-79
2023/08/23 05:40:03;;;;;;;19.70;17.50;;;25.60;59.30;;;;;;5009436;28;114668;-79
2023/08/23 05:42:31;;;;;;;13.27;11.85;;;25.60;59.30;;;;;;5028228;27;114308;-79
2023/08/23 05:44:59;;;;;;;24.55;22.02;;;25.60;59.60;;;;;;5027003;28;114484;-78
2023/08/23 05:47:26;;;;;;;22.55;20.15;;;25.70;58.70;;;;;;5025870;28;114953;-79
2023/08/23 05:49:53;;;;;;;20.10;17.77;;;25.60;58.60;;;;;;5025840;28;115220;-79
2023/08/23 05:52:20;;;;;;;22.77;20.40;;;25.40;59.30;;;;;;5026176;28;114113;-80
2023/08/23 05:54:47;;;;;;;14.40;13.00;;;25.40;59.10;;;;;;5026828;28;114285;-80
2023/08/23 05:57:14;;;;;;;18.85;16.08;;;25.30;60.00;;;;;;5026895;28;114869;-79
2023/08/23 05:59:41;;;;;;;14.05;12.68;;;25.30;59.60;;;;;;5027000;28;114605;-79
2023/08/23 06:02:08;;;;;;;22.70;19.13;;;25.30;60.00;;;;;;5027674;28;114233;-79
2023/08/23 06:04:38;;;;;;;20.08;18.00;;;25.20;59.80;;;;;;5026644;28;114176;-80
2023/08/23 06:07:05;;;;;;;29.55;24.67;;;25.10;60.00;;;;;;5026570;28;114907;-80
2023/08/23 06:09:33;;;;;;;15.30;13.60;;;25.00;60.10;;;;;;5025292;28;115291;-80
2023/08/23 06:12:00;;;;;;;22.48;20.10;;;24.90;60.70;;;;;;5026408;28;114307;-79
2023/08/23 06:14:27;;;;;;;18.42;16.40;;;25.00;60.40;;;;;;5027274;28;114296;-77
2023/08/23 06:16:54;;;;;;;21.02;17.48;;;25.10;60.30;;;;;;5026127;28;115155;-79
2023/08/23 06:19:21;;;;;;;14.40;12.70;;;25.10;59.90;;;;;;5026596;28;115029;-78
2023/08/23 06:21:48;;;;;;;28.58;25.13;;;25.10;60.40;;;;;;5027631;28;114208;-78
2023/08/23 06:24:15;;;;;;;27.83;23.25;;;25.10;60.10;;;;;;5027194;28;114500;-80
2023/08/23 06:26:44;;;;;;;17.58;15.32;;;25.10;59.90;;;;;;5026523;28;115006;-80
2023/08/23 06:29:11;;;;;;;15.40;12.85;;;25.10;60.10;;;;;;5025229;28;114693;-79
2023/08/23 06:31:38;;;;;;;35.40;26.45;;;25.10;60.50;;;;;;5026216;28;114121;-79
2023/08/23 06:34:05;;;;;;;14.38;12.88;;;25.00;59.90;;;;;;5026566;27;114259;-79
2023/08/23 06:36:32;;;;;;;34.40;27.92;;;25.00;60.60;;;;;;5024356;28;114814;-79
2023/08/23 06:38:59;;;;;;;33.85;29.15;;;25.00;59.70;;;;;;5025037;28;114716;-79
2023/08/23 06:41:28;;;;;;;25.60;20.02;;;24.90;59.60;;;;;;5026316;28;114156;-78
2023/08/23 06:43:59;;;;;;;31.40;26.02;;;24.80;60.40;;;;;;5025972;28;114217;-80
2023/08/23 06:46:27;;;;;;;20.67;16.73;;;24.80;60.20;;;;;;5026222;28;115410;-80
2023/08/23 06:48:55;;;;;;;29.38;23.67;;;24.80;60.80;;;;;;5025017;28;114760;-78
2023/08/23 06:51:22;;;;;;;34.60;26.65;;;24.80;60.40;;;;;;5026983;28;114060;-78
2023/08/23 06:53:50;;;;;;;24.17;20.50;;;24.70;60.50;;;;;;5025818;28;114250;-78
2023/08/23 06:56:17;;;;;;;40.13;31.60;;;24.70;60.90;;;;;;5025913;28;114793;-78
2023/08/23 06:58:44;;;;;;;25.05;20.50;;;24.60;60.80;;;;;;5025123;28;114603;-78
2023/08/23 07:01:17;;;;;;;27.08;21.65;;;24.60;61.40;;;;;;5025817;28;114347;-79
2023/08/23 07:03:44;;;;;;;29.65;25.33;;;24.70;61.10;;;;;;5025732;28;114108;-79
2023/08/23 07:06:12;;;;;;;40.17;30.83;;;24.80;60.40;;;;;;5023991;28;114890;-77
2023/08/23 07:08:43;;;;;;;35.13;27.83;;;25.00;59.80;;;;;;5024736;28;114667;-79
2023/08/23 07:11:10;;;;;;;25.83;21.00;;;25.00;59.70;;;;;;5025373;28;114509;-79
2023/08/23 07:13:39;;;;;;;38.75;28.75;;;24.90;60.30;;;;;;5026791;27;114033;-78
2023/08/23 07:16:06;;;;;;;33.30;26.00;;;24.80;60.00;;;;;;5025003;28;115816;-79
2023/08/23 07:18:33;;;;;;;23.70;19.52;;;24.80;60.20;;;;;;5025604;28;114642;-79
2023/08/23 07:21:02;;;;;;;27.40;20.85;;;24.80;60.40;;;;;;5008132;28;114281;-79
2023/08/23 07:23:29;;;;;;;21.00;16.75;;;24.80;60.80;;;;;;5025788;28;113966;-79
2023/08/23 07:25:56;;;;;;;21.98;17.33;;;24.80;60.80;;;;;;5025420;28;114867;-79
2023/08/23 07:28:26;;;;;;;38.88;30.40;;;25.10;60.50;;;;;;5007738;28;114626;-81
2023/08/23 07:30:59;;;;;;;40.28;29.38;;;25.20;59.30;;;;;;5025807;28;114303;-80
2023/08/23 07:33:26;;;;;;;34.08;25.50;;;25.30;59.00;;;;;;5026478;27;114345;-78
2023/08/23 07:36:00;;;;;;;21.75;17.17;;;25.30;58.90;;;;;;5025193;28;114955;-80
2023/08/23 07:38:28;;;;;;;38.47;30.55;;;25.20;59.70;;;;;;5023927;28;114662;-79
2023/08/23 07:40:57;;;;;;;34.03;27.05;;;25.10;59.10;;;;;;5026325;28;114198;-79
2023/08/23 07:43:24;;;;;;;26.98;21.45;;;25.00;59.30;;;;;;5007645;28;114278;-79
2023/08/23 07:45:59;;;;;;;34.28;26.58;;;24.90;60.00;;;;;;5023510;28;115014;-79
2023/08/23 07:48:27;;;;;;;21.95;17.20;;;25.00;59.60;;;;;;5024377;28;114642;-79
2023/08/23 07:51:01;;;;;;;22.48;18.55;;;25.10;60.00;;;;;;5008191;28;114492;-79
2023/08/23 07:53:29;;;;;;;23.05;17.70;;;25.20;59.80;;;;;;5025045;28;114320;-79
2023/08/23 07:55:56;;;;;;;23.08;18.10;;;25.30;59.60;;;;;;5023595;28;114939;-77
2023/08/23 07:58:23;;;;;;;29.90;23.70;;;25.30;59.30;;;;;;5023415;28;118233;-78
2023/08/23 08:00:51;;;;;;;25.88;21.50;;;25.40;58.40;;;;;;5024828;28;114257;-79
2023/08/23 08:03:18;;;;;;;20.65;16.73;;;25.50;58.20;;;;;;5025964;28;114109;-79
2023/08/23 08:05:46;;;;;;;27.05;22.30;;;25.50;58.70;;;;;;5023400;28;117142;-79
2023/08/23 08:08:13;;;;;;;21.67;17.70;;;25.60;58.00;;;;;;5023837;28;114642;-79
2023/08/23 08:10:41;;;;;;;21.08;17.67;;;25.70;58.20;;;;;;5025969;28;114295;-79
2023/08/23 08:13:08;;;;;;;25.50;21.70;;;25.70;58.10;;;;;;5025000;28;114308;-79
2023/08/23 08:15:38;;;;;;;20.40;17.45;;;25.70;57.80;;;;;;5023075;28;115099;-79
2023/08/23 08:18:05;;;;;;;23.42;18.38;;;25.80;57.90;;;;;;5023777;28;114611;-78
2023/08/23 08:20:32;;;;;;;20.38;17.20;;;25.80;57.40;;;;;;5025211;28;114335;-77
2023/08/23 08:22:59;;;;;;;18.77;15.98;;;25.80;57.40;;;;;;5025464;27;114318;-78
2023/08/23 08:25:26;;;;;;;26.33;21.58;;;25.80;57.70;;;;;;5024845;28;114945;-78
2023/08/23 08:27:53;;;;;;;21.15;17.10;;;25.80;57.20;;;;;;5024758;28;115184;-78
2023/08/23 08:30:20;;;;;;;25.20;20.00;;;25.70;57.60;;;;;;5025984;28;114132;-78
2023/08/23 08:32:48;;;;;;;23.48;17.02;;;25.70;57.30;;;;;;5032198;27;114270;-78
2023/08/23 08:35:15;;;;;;;18.52;15.32;;;25.70;57.80;;;;;;5045006;27;115531;-77
2023/08/23 08:37:42;;;;;;;21.33;19.02;;;25.60;58.00;;;;;;5042270;27;114862;-77
2023/08/23 08:40:10;;;;;;;25.35;21.92;;;25.70;57.50;;;;;;5043516;27;114179;-79
2023/08/23 08:42:38;;;;;;;24.23;20.20;;;25.70;57.30;;;;;;5043529;27;114478;-77
2023/08/23 08:45:06;;;;;;;16.38;14.15;;;25.70;57.50;;;;;;5040877;27;114963;-77
2023/08/23 08:47:33;;;;;;;26.02;19.10;;;25.70;58.00;;;;;;5024872;27;115290;-78
2023/08/23 08:50:00;;;;;;;20.63;17.25;;;25.60;57.70;;;;;;5043473;27;114577;-77
2023/08/23 08:52:27;;;;;;;17.50;14.88;;;25.70;57.70;;;;;;5045634;27;114489;-77
2023/08/23 08:54:54;;;;;;;21.02;16.90;;;25.80;57.70;;;;;;5026824;27;114953;-78
2023/08/23 08:57:23;;;;;;;17.73;14.20;;;25.80;57.40;;;;;;5044517;27;115313;-78
2023/08/23 08:59:50;;;;;;;20.05;16.77;;;25.90;57.40;;;;;;5048977;27;114201;-78
2023/08/23 09:02:18;;;;;;;17.58;14.88;;;25.90;57.10;;;;;;5048271;27;114209;-77
2023/08/23 09:04:48;;;;;;;15.68;13.73;;;26.00;57.10;;;;;;5047927;27;114829;-78
2023/08/23 09:07:15;;;;;;;16.08;14.38;;;26.00;57.00;;;;;;5047981;27;114409;-78
2023/08/23 09:09:43;;;;;;;22.63;19.42;;;26.10;56.80;;;;;;5048406;27;114179;-78
2023/08/23 09:12:10;;;;;;;22.25;18.75;;;26.20;56.10;;;;;;5047564;27;114091;-78
2023/08/23 09:14:39;;;;;;;24.95;20.42;;;26.10;56.10;;;;;;5046803;27;115566;-77
2023/08/23 09:17:07;;;;;;;16.10;13.65;;;26.10;56.20;;;;;;5046628;27;114586;-77
2023/08/23 09:19:36;;;;;;;19.40;16.60;;;26.10;56.50;;;;;;5048865;27;114092;-78
2023/08/23 09:22:04;;;;;;;20.35;17.63;;;26.20;56.40;;;;;;5048608;27;114424;-78
2023/08/23 09:24:32;;;;;;;20.63;18.40;;;26.20;56.20;;;;;;5047394;27;115441;-77
2023/08/23 09:27:00;;;;;;;18.45;16.52;;;26.20;56.00;;;;;;5048114;27;114575;-78
2023/08/23 09:29:27;;;;;;;19.70;15.95;;;26.20;56.20;;;;;;5048746;27;114227;-78
2023/08/23 09:31:58;;;;;;;27.35;23.50;;;26.20;56.10;;;;;;5047310;27;114374;-78
2023/08/23 09:34:25;;;;;;;18.17;15.02;;;26.20;56.10;;;;;;5047119;27;114878;-78
2023/08/23 09:36:52;;;;;;;23.42;19.92;;;26.20;56.20;;;;;;5046975;27;114598;-77
2023/08/23 09:39:21;;;;;;;23.73;20.42;;;26.20;56.00;;;;;;5048146;27;114316;-77
2023/08/23 09:41:49;;;;;;;28.20;25.15;;;26.20;55.70;;;;;;5048201;27;114178;-77
2023/08/23 09:44:39;;;;;;;21.73;18.77;;;26.10;55.70;;;;;;5047434;27;115024;-77
2023/08/23 09:47:14;;;;;;;29.27;25.42;;;26.00;56.10;;;;;;5046306;27;114626;-78
2023/08/23 09:49:44;;;;;;;27.17;24.27;;;25.90;56.00;;;;;;5046905;27;114187;-77
2023/08/23 09:52:12;;;;;;;25.35;20.75;;;25.80;56.30;;;;;;5047070;27;114484;-76
2023/08/23 09:54:45;;;;;;;31.90;28.42;;;25.80;56.50;;;;;;5047189;27;114898;-78
2023/08/23 09:57:30;;;;;;;33.95;28.15;;;25.90;56.10;;;;;;5047239;27;114663;-78
2023/08/23 09:59:59;;;;;;;36.03;29.48;;;25.70;56.50;;;;;;5046562;27;114501;-77
2023/08/23 10:02:26;;;;;;;22.98;20.52;;;25.70;56.40;;;;;;5030221;27;114084;-78
2023/08/23 10:04:54;;;;;;;28.67;25.38;;;25.60;56.80;;;;;;5046768;27;116218;-77
2023/08/23 10:07:21;;;;;;;29.33;25.33;;;25.50;56.60;;;;;;5045897;27;114571;-78
2023/08/23 10:09:49;;;;;;;23.55;20.50;;;25.50;56.90;;;;;;5029699;27;114265;-79
2023/08/23 10:12:16;;;;;;;32.30;26.30;;;25.50;57.30;;;;;;5046674;27;114337;-78
2023/08/23 10:14:44;;;;;;;19.27;16.73;;;25.60;56.80;;;;;;5028961;27;114998;-77
2023/08/23 10:17:13;;;;;;;33.28;26.58;;;25.70;57.20;;;;;;5029094;27;115223;-77
2023/08/23 10:19:40;;;;;;;30.63;25.23;;;25.80;56.80;;;;;;5030114;27;114188;-78
2023/08/23 10:22:07;;;;;;;32.08;26.95;;;25.80;56.50;;;;;;5047841;27;114380;-78
2023/08/23 10:24:34;;;;;;;24.98;21.30;;;25.80;56.20;;;;;;5046499;27;115455;-78
2023/08/23 10:27:06;;;;;;;21.77;18.42;;;25.80;56.70;;;;;;5045717;27;114594;-77
2023/08/23 10:29:36;;;;;;;38.70;28.38;;;25.80;57.00;;;;;;5047642;27;114318;-78
2023/08/23 10:32:13;;;;;;;30.35;24.52;;;25.80;56.50;;;;;;5047329;27;114571;-80
2023/08/23 10:34:40;;;;;;;29.02;24.27;;;25.90;56.10;;;;;;5046693;27;114983;-77
2023/08/23 10:37:17;;;;;;;29.80;25.48;;;25.90;56.10;;;;;;5045668;27;115756;-78
2023/08/23 10:39:51;;;;;;;22.23;19.88;;;25.90;55.90;;;;;;5046140;27;114081;-78
2023/08/23 10:42:19;;;;;;;27.42;23.85;;;25.80;56.70;;;;;;5046740;27;114684;-79
2023/08/23 10:44:56;;;;;;;23.60;21.08;;;25.80;56.60;;;;;;5046323;27;115089;-78
2023/08/23 10:47:23;;;;;;;29.58;24.92;;;25.80;56.70;;;;;;5046538;27;114470;-79
2023/08/23 10:49:51;;;;;;;22.42;20.00;;;25.90;56.40;;;;;;5012457;27;114474;-77
2023/08/23 10:52:21;;;;;;;26.98;21.50;;;26.00;56.40;;;;;;5047040;27;114351;-78
2023/08/23 10:54:48;;;;;;;25.33;22.55;;;26.10;55.80;;;;;;5046515;27;115010;-78
2023/08/23 10:57:17;;;;;;;33.17;28.38;;;26.20;55.70;;;;;;5046268;27;114773;-77
2023/08/23 10:59:44;;;;;;;25.95;21.92;;;26.30;55.30;;;;;;5045782;27;114126;-77
2023/08/23 11:02:11;;;;;;;36.28;28.05;;;26.30;55.50;;;;;;5047224;27;114073;-78
2023/08/23 11:04:39;;;;;;;37.42;28.95;;;26.30;55.10;;;;;;5046172;27;114954;-78
2023/08/23 11:07:06;;;;;;;32.63;27.05;;;26.20;54.80;;;;;;5046489;27;114709;-79
2023/08/23 11:09:36;;;;;;;27.83;23.05;;;26.00;55.00;;;;;;5045600;27;114616;-78
2023/08/23 11:12:05;;;;;;;25.98;22.63;;;26.00;55.60;;;;;;5046654;27;114251;-78
2023/08/23 11:14:32;;;;;;;32.38;28.35;;;25.90;56.10;;;;;;5045638;27;114892;-77
2023/08/23 11:16:59;;;;;;;22.83;19.27;;;26.00;55.50;;;;;;5046053;27;114717;-78
2023/08/23 11:19:26;;;;;;;23.33;20.38;;;26.00;56.00;;;;;;5045193;27;114367;-78
2023/08/23 11:21:54;;;;;;;25.90;21.60;;;26.10;56.00;;;;;;5046684;27;114239;-78
2023/08/23 11:24:21;;;;;;;25.63;22.92;;;26.20;55.80;;;;;;5044521;27;114909;-79
2023/08/23 11:26:48;;;;;;;23.35;20.90;;;26.30;55.40;;;;;;5027756;27;116831;-78
2023/08/23 11:29:15;;;;;;;29.02;24.98;;;26.40;55.20;;;;;;5046766;27;114254;-78
2023/08/23 11:31:42;;;;;;;20.25;17.00;;;26.40;54.80;;;;;;5047091;27;114172;-78
2023/08/23 11:34:11;;;;;;;34.30;24.02;;;26.50;55.00;;;;;;5027037;27;116238;-79
2023/08/23 11:36:38;;;;;;;22.27;19.38;;;26.50;54.30;;;;;;5044624;27;116507;-78
2023/08/23 11:39:06;;;;;;;22.85;18.98;;;26.50;54.60;;;;;;5045824;27;114159;-79
2023/08/23 11:41:34;;;;;;;27.10;23.55;;;26.50;54.70;;;;;;5046397;27;114099;-78
2023/08/23 11:44:05;;;;;;;25.73;22.70;;;26.60;54.20;;;;;;5045171;27;117051;-78
2023/08/23 11:46:34;;;;;;;31.88;27.63;;;26.70;54.00;;;;;;5044382;27;114601;-79
2023/08/23 11:49:03;;;;;;;32.63;27.90;;;26.70;53.90;;;;;;5046184;27;114289;-78
2023/08/23 11:51:44;;;;;;;30.25;26.30;;;26.70;53.40;;;;;;5046194;27;114299;-79
2023/08/23 11:54:11;;;;;;;30.73;27.40;;;26.80;53.60;;;;;;5045233;27;114996;-78
2023/08/23 11:56:40;;;;;;;22.70;20.30;;;26.80;53.30;;;;;;5044531;27;114761;-77
2023/08/23 11:59:08;;;;;;;25.10;21.50;;;26.90;53.50;;;;;;5045077;27;114220;-78
2023/08/23 12:01:36;;;;;;;23.50;20.95;;;26.90;53.10;;;;;;5046372;27;114413;-78
2023/08/23 12:04:03;;;;;;;23.90;21.38;;;27.00;53.30;;;;;;5043777;27;114866;-78
2023/08/23 12:06:30;;;;;;;23.10;20.60;;;27.10;53.10;;;;;;5045342;27;114871;-77
2023/08/23 12:08:57;;;;;;;26.02;22.75;;;27.10;53.10;;;;;;5046243;27;114308;-78
2023/08/23 12:11:25;;;;;;;25.75;23.00;;;27.20;52.50;;;;;;5044912;27;114395;-78
2023/08/23 12:13:52;;;;;;;25.05;20.98;;;27.20;52.50;;;;;;5027067;27;117685;-78
2023/08/23 12:16:20;;;;;;;20.02;17.88;;;27.30;52.40;;;;;;5044078;27;114754;-79
2023/08/23 12:18:52;;;;;;;29.75;24.98;;;27.30;52.60;;;;;;5044745;27;114318;-79
2023/08/23 12:21:19;;;;;;;26.83;23.95;;;27.40;51.40;;;;;;5046684;27;114171;-78
2023/08/23 12:23:46;;;;;;;27.33;24.13;;;27.30;51.30;;;;;;5043786;27;115388;-78